WIHH

Jakarta/Halim Perdanakusuma International Airport

Airport
ICAO code
WIHH
IATA Code
HLP
Summary
ICAO Region
APAC
ICAO Territory
Location

East Jakarta, Jakarta

Serving
Jakarta
Elevation
82 ft
Coordinates
6° 16' 3" S , 106° 53' 24" E
KCC
Aw
Metar
Observation
WIHH 110830Z 03005KT 6000 SCT020 34/23 Q1006 NOSIG
Station
HALIM PERDANAKUS
Date/Time
2022-08-11 08:30:00
Wind direction
30°
Wind speed
05 kts
Lowest cloud amount
scattered clouds
Temperature
34°C
Dew point
23°C
Humidity
52%
QNH
1006 hPa
Weather condition
n/a

Airport serving Jakarta.

Climatology

Tropical Savanna climate (Köppen climate classification Aw) - monthly mean temperature above 18°C in every month of the year and a pronounced dry season.

SKYbrary Partners:

Safety knowledge contributed by: